sensor_id;sensor_type;location;lat;lon;timestamp;P1;durP1;ratioP1;P2;durP2;ratioP2
36709;SDS011;22694;51.040;3.684;2022-10-19T00:03:40;4.40;;;1.27;;
36709;SDS011;22694;51.040;3.684;2022-10-19T00:06:14;3.88;;;1.23;;
36709;SDS011;22694;51.040;3.684;2022-10-19T00:08:42;1.40;;;0.75;;
36709;SDS011;22694;51.040;3.684;2022-10-19T00:11:09;1.50;;;1.15;;
36709;SDS011;22694;51.040;3.684;2022-10-19T00:13:36;4.95;;;1.35;;
36709;SDS011;22694;51.040;3.684;2022-10-19T00:16:06;1.27;;;1.13;;
36709;SDS011;22694;51.040;3.684;2022-10-19T00:18:36;4.32;;;1.08;;
36709;SDS011;22694;51.040;3.684;2022-10-19T00:21:03;2.03;;;1.27;;
36709;SDS011;22694;51.040;3.684;2022-10-19T00:23:30;2.70;;;1.10;;
36709;SDS011;22694;51.040;3.684;2022-10-19T00:25:56;2.90;;;1.30;;
36709;SDS011;22694;51.040;3.684;2022-10-19T00:28:22;5.13;;;1.30;;
36709;SDS011;22694;51.040;3.684;2022-10-19T00:30:48;2.80;;;1.40;;
36709;SDS011;22694;51.040;3.684;2022-10-19T00:33:13;2.03;;;1.10;;
36709;SDS011;22694;51.040;3.684;2022-10-19T00:35:44;2.90;;;1.35;;
36709;SDS011;22694;51.040;3.684;2022-10-19T00:38:12;2.60;;;1.10;;
36709;SDS011;22694;51.040;3.684;2022-10-19T00:40:38;3.45;;;1.20;;
36709;SDS011;22694;51.040;3.684;2022-10-19T00:43:14;5.22;;;1.20;;
36709;SDS011;22694;51.040;3.684;2022-10-19T00:45:45;3.30;;;1.23;;
36709;SDS011;22694;51.040;3.684;2022-10-19T00:48:12;2.17;;;1.20;;
36709;SDS011;22694;51.040;3.684;2022-10-19T00:50:50;1.98;;;1.10;;
36709;SDS011;22694;51.040;3.684;2022-10-19T00:53:18;1.85;;;1.17;;
36709;SDS011;22694;51.040;3.684;2022-10-19T00:55:45;1.33;;;1.20;;
36709;SDS011;22694;51.040;3.684;2022-10-19T00:58:11;2.53;;;1.15;;
36709;SDS011;22694;51.040;3.684;2022-10-19T01:00:37;1.77;;;1.10;;
36709;SDS011;22694;51.040;3.684;2022-10-19T01:03:03;2.15;;;1.17;;
36709;SDS011;22694;51.040;3.684;2022-10-19T01:05:29;3.08;;;1.42;;
36709;SDS011;22694;51.040;3.684;2022-10-19T01:07:57;2.03;;;1.30;;
36709;SDS011;22694;51.040;3.684;2022-10-19T01:10:30;2.53;;;1.23;;
36709;SDS011;22694;51.040;3.684;2022-10-19T01:15:52;2.13;;;1.20;;
36709;SDS011;22694;51.040;3.684;2022-10-19T01:18:42;3.28;;;1.15;;
36709;SDS011;22694;51.040;3.684;2022-10-19T01:21:17;2.65;;;1.30;;
36709;SDS011;22694;51.040;3.684;2022-10-19T01:32:05;1.95;;;1.17;;
36709;SDS011;22694;51.040;3.684;2022-10-19T01:39:52;2.15;;;1.38;;
36709;SDS011;22694;51.040;3.684;2022-10-19T01:47:52;1.85;;;1.05;;
36709;SDS011;22694;51.040;3.684;2022-10-19T01:50:23;2.92;;;1.30;;
36709;SDS011;22694;51.040;3.684;2022-10-19T01:52:54;5.32;;;1.65;;
36709;SDS011;22694;51.040;3.684;2022-10-19T01:55:21;2.80;;;1.17;;
36709;SDS011;22694;51.040;3.684;2022-10-19T01:57:51;3.40;;;1.55;;
36709;SDS011;22694;51.040;3.684;2022-10-19T02:00:22;2.33;;;1.00;;
36709;SDS011;22694;51.040;3.684;2022-10-19T02:02:49;2.55;;;1.20;;
36709;SDS011;22694;51.040;3.684;2022-10-19T02:05:17;2.35;;;1.30;;
36709;SDS011;22694;51.040;3.684;2022-10-19T02:07:47;2.35;;;1.30;;
36709;SDS011;22694;51.040;3.684;2022-10-19T02:10:18;2.42;;;1.27;;
36709;SDS011;22694;51.040;3.684;2022-10-19T02:12:44;3.55;;;1.42;;
36709;SDS011;22694;51.040;3.684;2022-10-19T02:15:13;3.58;;;1.42;;
36709;SDS011;22694;51.040;3.684;2022-10-19T02:17:49;3.03;;;1.20;;
36709;SDS011;22694;51.040;3.684;2022-10-19T02:20:17;2.90;;;1.10;;
36709;SDS011;22694;51.040;3.684;2022-10-19T02:22:44;5.32;;;1.30;;
36709;SDS011;22694;51.040;3.684;2022-10-19T02:25:10;5.07;;;1.25;;
36709;SDS011;22694;51.040;3.684;2022-10-19T02:27:37;2.97;;;1.40;;
36709;SDS011;22694;51.040;3.684;2022-10-19T02:30:06;2.65;;;1.30;;
36709;SDS011;22694;51.040;3.684;2022-10-19T02:32:37;1.88;;;1.17;;
36709;SDS011;22694;51.040;3.684;2022-10-19T02:35:03;3.88;;;1.20;;
36709;SDS011;22694;51.040;3.684;2022-10-19T02:37:29;3.90;;;1.20;;
36709;SDS011;22694;51.040;3.684;2022-10-19T02:39:54;3.67;;;1.30;;
36709;SDS011;22694;51.040;3.684;2022-10-19T02:42:27;4.35;;;1.23;;
36709;SDS011;22694;51.040;3.684;2022-10-19T02:45:10;4.63;;;1.27;;
36709;SDS011;22694;51.040;3.684;2022-10-19T02:47:54;3.15;;;1.65;;
36709;SDS011;22694;51.040;3.684;2022-10-19T02:50:26;5.72;;;1.25;;
36709;SDS011;22694;51.040;3.684;2022-10-19T02:52:52;2.20;;;1.10;;
36709;SDS011;22694;51.040;3.684;2022-10-19T02:55:18;4.85;;;1.30;;
36709;SDS011;22694;51.040;3.684;2022-10-19T02:57:43;2.50;;;1.50;;
36709;SDS011;22694;51.040;3.684;2022-10-19T03:00:09;4.10;;;1.48;;
36709;SDS011;22694;51.040;3.684;2022-10-19T03:02:36;2.85;;;1.17;;
36709;SDS011;22694;51.040;3.684;2022-10-19T03:05:02;3.13;;;1.30;;
36709;SDS011;22694;51.040;3.684;2022-10-19T03:07:28;4.60;;;1.15;;
36709;SDS011;22694;51.040;3.684;2022-10-19T03:09:54;2.60;;;1.40;;
36709;SDS011;22694;51.040;3.684;2022-10-19T03:12:19;3.85;;;1.10;;
36709;SDS011;22694;51.040;3.684;2022-10-19T03:14:45;1.95;;;1.30;;
36709;SDS011;22694;51.040;3.684;2022-10-19T03:17:10;3.85;;;1.13;;
36709;SDS011;22694;51.040;3.684;2022-10-19T03:19:36;2.10;;;1.25;;
36709;SDS011;22694;51.040;3.684;2022-10-19T03:22:02;4.13;;;1.40;;
36709;SDS011;22694;51.040;3.684;2022-10-19T03:24:28;3.78;;;1.35;;
36709;SDS011;22694;51.040;3.684;2022-10-19T03:26:55;4.00;;;1.45;;
36709;SDS011;22694;51.040;3.684;2022-10-19T03:29:20;2.78;;;1.10;;
36709;SDS011;22694;51.040;3.684;2022-10-19T03:31:46;2.38;;;1.23;;
36709;SDS011;22694;51.040;3.684;2022-10-19T03:34:12;2.60;;;1.17;;
36709;SDS011;22694;51.040;3.684;2022-10-19T03:36:38;2.72;;;1.10;;
36709;SDS011;22694;51.040;3.684;2022-10-19T03:39:06;3.22;;;1.48;;
36709;SDS011;22694;51.040;3.684;2022-10-19T03:41:35;2.20;;;1.00;;
36709;SDS011;22694;51.040;3.684;2022-10-19T03:44:02;4.68;;;1.70;;
36709;SDS011;22694;51.040;3.684;2022-10-19T03:46:28;4.28;;;1.23;;
36709;SDS011;22694;51.040;3.684;2022-10-19T03:48:54;3.30;;;1.15;;
36709;SDS011;22694;51.040;3.684;2022-10-19T03:51:20;3.45;;;1.40;;
36709;SDS011;22694;51.040;3.684;2022-10-19T03:53:55;3.00;;;1.10;;
36709;SDS011;22694;51.040;3.684;2022-10-19T03:56:23;4.20;;;1.55;;
36709;SDS011;22694;51.040;3.684;2022-10-19T03:58:50;3.85;;;1.13;;
36709;SDS011;22694;51.040;3.684;2022-10-19T04:01:20;2.58;;;0.90;;
36709;SDS011;22694;51.040;3.684;2022-10-19T04:03:53;1.23;;;1.00;;
36709;SDS011;22694;51.040;3.684;2022-10-19T04:06:21;4.35;;;0.98;;
36709;SDS011;22694;51.040;3.684;2022-10-19T04:08:58;2.47;;;1.35;;
36709;SDS011;22694;51.040;3.684;2022-10-19T04:11:26;3.17;;;1.13;;
36709;SDS011;22694;51.040;3.684;2022-10-19T04:13:54;3.60;;;1.20;;
36709;SDS011;22694;51.040;3.684;2022-10-19T04:16:21;4.65;;;1.30;;
36709;SDS011;22694;51.040;3.684;2022-10-19T04:18:48;3.78;;;1.70;;
36709;SDS011;22694;51.040;3.684;2022-10-19T04:23:50;2.25;;;1.20;;
36709;SDS011;22694;51.040;3.684;2022-10-19T04:26:17;4.00;;;1.33;;
36709;SDS011;22694;51.040;3.684;2022-10-19T04:28:44;4.75;;;1.40;;
36709;SDS011;22694;51.040;3.684;2022-10-19T04:31:10;3.17;;;0.90;;
36709;SDS011;22694;51.040;3.684;2022-10-19T04:33:36;2.63;;;0.90;;
36709;SDS011;22694;51.040;3.684;2022-10-19T04:36:04;4.13;;;0.90;;
36709;SDS011;22694;51.040;3.684;2022-10-19T04:38:31;4.00;;;1.30;;
36709;SDS011;22694;51.040;3.684;2022-10-19T04:41:00;2.42;;;0.98;;
36709;SDS011;22694;51.040;3.684;2022-10-19T04:43:28;2.33;;;1.05;;
36709;SDS011;22694;51.040;3.684;2022-10-19T04:45:53;3.45;;;1.15;;
36709;SDS011;22694;51.040;3.684;2022-10-19T04:48:19;3.22;;;1.00;;
36709;SDS011;22694;51.040;3.684;2022-10-19T04:50:44;2.50;;;0.80;;
36709;SDS011;22694;51.040;3.684;2022-10-19T04:53:10;1.23;;;0.90;;
36709;SDS011;22694;51.040;3.684;2022-10-19T04:55:39;2.08;;;0.75;;
36709;SDS011;22694;51.040;3.684;2022-10-19T04:58:06;1.98;;;0.75;;
36709;SDS011;22694;51.040;3.684;2022-10-19T05:00:31;1.90;;;0.80;;
36709;SDS011;22694;51.040;3.684;2022-10-19T05:02:57;1.80;;;0.80;;
36709;SDS011;22694;51.040;3.684;2022-10-19T05:05:22;1.65;;;0.75;;
36709;SDS011;22694;51.040;3.684;2022-10-19T05:07:50;2.15;;;1.10;;
36709;SDS011;22694;51.040;3.684;2022-10-19T05:10:16;2.13;;;0.70;;
36709;SDS011;22694;51.040;3.684;2022-10-19T05:12:41;2.47;;;0.88;;
36709;SDS011;22694;51.040;3.684;2022-10-19T05:15:07;2.60;;;0.90;;
36709;SDS011;22694;51.040;3.684;2022-10-19T05:17:33;2.75;;;1.00;;
36709;SDS011;22694;51.040;3.684;2022-10-19T05:19:59;2.83;;;0.80;;
36709;SDS011;22694;51.040;3.684;2022-10-19T05:22:24;2.70;;;0.80;;
36709;SDS011;22694;51.040;3.684;2022-10-19T05:24:50;1.40;;;0.88;;
36709;SDS011;22694;51.040;3.684;2022-10-19T05:27:15;2.38;;;1.00;;
36709;SDS011;22694;51.040;3.684;2022-10-19T05:29:41;2.65;;;1.08;;
36709;SDS011;22694;51.040;3.684;2022-10-19T05:32:07;3.22;;;1.10;;
36709;SDS011;22694;51.040;3.684;2022-10-19T05:34:32;2.45;;;1.13;;
36709;SDS011;22694;51.040;3.684;2022-10-19T05:36:58;4.63;;;1.25;;
36709;SDS011;22694;51.040;3.684;2022-10-19T05:39:23;2.88;;;1.20;;
36709;SDS011;22694;51.040;3.684;2022-10-19T05:41:49;1.77;;;0.88;;
36709;SDS011;22694;51.040;3.684;2022-10-19T05:44:16;2.22;;;0.95;;
36709;SDS011;22694;51.040;3.684;2022-10-19T05:46:46;2.35;;;1.20;;
36709;SDS011;22694;51.040;3.684;2022-10-19T05:49:13;2.25;;;1.08;;
36709;SDS011;22694;51.040;3.684;2022-10-19T05:51:40;2.78;;;1.13;;
36709;SDS011;22694;51.040;3.684;2022-10-19T05:54:06;2.50;;;1.02;;
36709;SDS011;22694;51.040;3.684;2022-10-19T05:56:32;4.68;;;1.10;;
36709;SDS011;22694;51.040;3.684;2022-10-19T05:59:00;3.63;;;1.00;;
36709;SDS011;22694;51.040;3.684;2022-10-19T06:01:29;2.60;;;0.98;;
36709;SDS011;22694;51.040;3.684;2022-10-19T06:03:57;2.80;;;1.25;;
36709;SDS011;22694;51.040;3.684;2022-10-19T06:06:23;4.53;;;1.08;;
36709;SDS011;22694;51.040;3.684;2022-10-19T06:08:50;1.75;;;1.00;;
36709;SDS011;22694;51.040;3.684;2022-10-19T06:11:21;3.42;;;0.98;;
36709;SDS011;22694;51.040;3.684;2022-10-19T06:13:50;2.80;;;1.15;;
36709;SDS011;22694;51.040;3.684;2022-10-19T06:16:18;2.30;;;0.95;;
36709;SDS011;22694;51.040;3.684;2022-10-19T06:18:45;2.42;;;1.20;;
36709;SDS011;22694;51.040;3.684;2022-10-19T06:21:12;3.33;;;1.27;;
36709;SDS011;22694;51.040;3.684;2022-10-19T06:23:39;2.95;;;1.20;;
36709;SDS011;22694;51.040;3.684;2022-10-19T06:26:06;3.17;;;0.98;;
36709;SDS011;22694;51.040;3.684;2022-10-19T06:28:38;4.95;;;1.13;;
36709;SDS011;22694;51.040;3.684;2022-10-19T06:31:05;2.47;;;1.20;;
36709;SDS011;22694;51.040;3.684;2022-10-19T06:33:31;3.13;;;1.25;;
36709;SDS011;22694;51.040;3.684;2022-10-19T06:36:10;2.70;;;1.05;;
36709;SDS011;22694;51.040;3.684;2022-10-19T06:38:37;3.05;;;1.05;;
36709;SDS011;22694;51.040;3.684;2022-10-19T06:41:03;1.90;;;1.00;;
36709;SDS011;22694;51.040;3.684;2022-10-19T06:43:29;2.20;;;1.23;;
36709;SDS011;22694;51.040;3.684;2022-10-19T06:45:55;2.35;;;1.23;;
36709;SDS011;22694;51.040;3.684;2022-10-19T06:48:21;1.52;;;1.00;;
36709;SDS011;22694;51.040;3.684;2022-10-19T06:50:54;2.13;;;1.08;;
36709;SDS011;22694;51.040;3.684;2022-10-19T06:53:20;1.52;;;1.00;;
36709;SDS011;22694;51.040;3.684;2022-10-19T06:55:46;3.15;;;1.13;;
36709;SDS011;22694;51.040;3.684;2022-10-19T06:58:11;2.15;;;1.30;;
36709;SDS011;22694;51.040;3.684;2022-10-19T07:00:37;1.25;;;1.10;;
36709;SDS011;22694;51.040;3.684;2022-10-19T07:03:02;3.75;;;1.20;;
36709;SDS011;22694;51.040;3.684;2022-10-19T07:05:28;1.58;;;1.10;;
36709;SDS011;22694;51.040;3.684;2022-10-19T07:07:53;2.38;;;1.35;;
36709;SDS011;22694;51.040;3.684;2022-10-19T07:10:20;2.33;;;1.30;;
36709;SDS011;22694;51.040;3.684;2022-10-19T07:12:46;3.70;;;1.30;;
36709;SDS011;22694;51.040;3.684;2022-10-19T07:15:11;2.25;;;1.00;;
36709;SDS011;22694;51.040;3.684;2022-10-19T07:17:37;3.33;;;1.20;;
36709;SDS011;22694;51.040;3.684;2022-10-19T07:20:03;2.28;;;1.10;;
36709;SDS011;22694;51.040;3.684;2022-10-19T07:22:29;2.90;;;1.40;;
36709;SDS011;22694;51.040;3.684;2022-10-19T07:24:54;1.52;;;1.00;;
36709;SDS011;22694;51.040;3.684;2022-10-19T07:27:20;1.25;;;1.15;;
36709;SDS011;22694;51.040;3.684;2022-10-19T07:29:46;3.13;;;1.20;;
36709;SDS011;22694;51.040;3.684;2022-10-19T07:32:12;2.63;;;1.55;;
36709;SDS011;22694;51.040;3.684;2022-10-19T07:34:37;1.90;;;1.40;;
36709;SDS011;22694;51.040;3.684;2022-10-19T07:37:03;2.22;;;1.30;;
36709;SDS011;22694;51.040;3.684;2022-10-19T07:39:28;2.60;;;1.67;;
36709;SDS011;22694;51.040;3.684;2022-10-19T07:41:54;6.03;;;1.83;;
36709;SDS011;22694;51.040;3.684;2022-10-19T07:44:19;5.85;;;1.90;;
36709;SDS011;22694;51.040;3.684;2022-10-19T07:46:45;6.32;;;2.28;;
36709;SDS011;22694;51.040;3.684;2022-10-19T07:49:14;5.57;;;1.70;;
36709;SDS011;22694;51.040;3.684;2022-10-19T07:51:40;4.15;;;1.85;;
36709;SDS011;22694;51.040;3.684;2022-10-19T07:54:06;3.78;;;1.73;;
36709;SDS011;22694;51.040;3.684;2022-10-19T07:56:32;4.07;;;1.85;;
36709;SDS011;22694;51.040;3.684;2022-10-19T07:58:59;6.13;;;1.70;;
36709;SDS011;22694;51.040;3.684;2022-10-19T08:01:28;2.33;;;1.15;;
36709;SDS011;22694;51.040;3.684;2022-10-19T08:03:57;1.55;;;1.33;;
36709;SDS011;22694;51.040;3.684;2022-10-19T08:06:23;5.65;;;2.05;;
36709;SDS011;22694;51.040;3.684;2022-10-19T08:08:50;2.65;;;1.70;;
36709;SDS011;22694;51.040;3.684;2022-10-19T08:13:55;4.00;;;1.63;;
36709;SDS011;22694;51.040;3.684;2022-10-19T08:16:30;4.53;;;1.65;;
36709;SDS011;22694;51.040;3.684;2022-10-19T08:19:09;4.03;;;1.80;;
36709;SDS011;22694;51.040;3.684;2022-10-19T08:21:36;6.05;;;2.25;;
36709;SDS011;22694;51.040;3.684;2022-10-19T08:24:04;4.60;;;2.13;;
36709;SDS011;22694;51.040;3.684;2022-10-19T08:26:31;5.38;;;2.10;;
36709;SDS011;22694;51.040;3.684;2022-10-19T08:29:02;6.85;;;2.33;;
36709;SDS011;22694;51.040;3.684;2022-10-19T08:31:28;2.58;;;2.20;;
36709;SDS011;22694;51.040;3.684;2022-10-19T08:33:54;3.80;;;1.83;;
36709;SDS011;22694;51.040;3.684;2022-10-19T08:36:20;4.13;;;1.70;;
36709;SDS011;22694;51.040;3.684;2022-10-19T08:38:46;3.67;;;1.95;;
36709;SDS011;22694;51.040;3.684;2022-10-19T08:41:20;2.75;;;2.00;;
36709;SDS011;22694;51.040;3.684;2022-10-19T08:43:55;3.00;;;1.83;;
36709;SDS011;22694;51.040;3.684;2022-10-19T08:49:23;4.43;;;2.45;;
36709;SDS011;22694;51.040;3.684;2022-10-19T08:51:53;3.17;;;1.95;;
36709;SDS011;22694;51.040;3.684;2022-10-19T08:54:21;2.25;;;1.70;;
36709;SDS011;22694;51.040;3.684;2022-10-19T08:57:13;8.30;;;2.55;;
36709;SDS011;22694;51.040;3.684;2022-10-19T09:08:14;3.92;;;1.80;;
36709;SDS011;22694;51.040;3.684;2022-10-19T09:10:41;2.22;;;1.40;;
36709;SDS011;22694;51.040;3.684;2022-10-19T09:13:54;4.55;;;1.90;;
36709;SDS011;22694;51.040;3.684;2022-10-19T09:16:01;3.60;;;2.05;;
36709;SDS011;22694;51.040;3.684;2022-10-19T09:18:29;2.42;;;1.70;;
36709;SDS011;22694;51.040;3.684;2022-10-19T09:26:16;2.78;;;1.67;;
36709;SDS011;22694;51.040;3.684;2022-10-19T09:31:23;11.23;;;2.15;;
36709;SDS011;22694;51.040;3.684;2022-10-19T09:34:01;13.13;;;2.30;;
36709;SDS011;22694;51.040;3.684;2022-10-19T09:36:40;4.85;;;1.63;;
36709;SDS011;22694;51.040;3.684;2022-10-19T09:39:13;4.47;;;2.00;;
36709;SDS011;22694;51.040;3.684;2022-10-19T09:41:50;6.50;;;2.05;;
36709;SDS011;22694;51.040;3.684;2022-10-19T09:44:41;5.13;;;1.95;;
36709;SDS011;22694;51.040;3.684;2022-10-19T09:47:14;6.28;;;2.40;;
36709;SDS011;22694;51.040;3.684;2022-10-19T09:50:04;4.68;;;3.85;;
36709;SDS011;22694;51.040;3.684;2022-10-19T09:52:47;6.60;;;4.07;;
36709;SDS011;22694;51.040;3.684;2022-10-19T09:58:23;5.68;;;3.40;;
36709;SDS011;22694;51.040;3.684;2022-10-19T10:00:51;4.25;;;3.17;;
36709;SDS011;22694;51.040;3.684;2022-10-19T10:03:26;8.57;;;3.22;;
36709;SDS011;22694;51.040;3.684;2022-10-19T10:06:08;7.22;;;3.80;;
36709;SDS011;22694;51.040;3.684;2022-10-19T10:08:38;8.18;;;5.35;;
36709;SDS011;22694;51.040;3.684;2022-10-19T10:11:23;17.13;;;8.45;;
36709;SDS011;22694;51.040;3.684;2022-10-19T10:13:52;19.38;;;10.25;;
36709;SDS011;22694;51.040;3.684;2022-10-19T10:16:20;20.35;;;12.30;;
36709;SDS011;22694;51.040;3.684;2022-10-19T10:21:21;17.48;;;10.73;;
36709;SDS011;22694;51.040;3.684;2022-10-19T10:24:05;12.27;;;8.10;;
36709;SDS011;22694;51.040;3.684;2022-10-19T10:26:38;11.95;;;8.25;;
36709;SDS011;22694;51.040;3.684;2022-10-19T10:29:38;10.35;;;7.13;;
36709;SDS011;22694;51.040;3.684;2022-10-19T10:34:35;11.20;;;5.53;;
36709;SDS011;22694;51.040;3.684;2022-10-19T10:37:03;10.43;;;5.05;;
36709;SDS011;22694;51.040;3.684;2022-10-19T10:39:31;11.68;;;4.93;;
36709;SDS011;22694;51.040;3.684;2022-10-19T10:42:04;10.07;;;4.97;;
36709;SDS011;22694;51.040;3.684;2022-10-19T10:44:34;8.10;;;4.38;;
36709;SDS011;22694;51.040;3.684;2022-10-19T10:47:02;7.50;;;4.43;;
36709;SDS011;22694;51.040;3.684;2022-10-19T10:49:35;8.07;;;5.00;;
36709;SDS011;22694;51.040;3.684;2022-10-19T10:52:05;8.52;;;4.63;;
36709;SDS011;22694;51.040;3.684;2022-10-19T10:54:39;7.88;;;4.78;;
36709;SDS011;22694;51.040;3.684;2022-10-19T10:57:20;8.57;;;4.35;;
36709;SDS011;22694;51.040;3.684;2022-10-19T11:00:09;8.25;;;4.30;;
36709;SDS011;22694;51.040;3.684;2022-10-19T11:05:14;7.38;;;4.43;;
36709;SDS011;22694;51.040;3.684;2022-10-19T11:07:47;7.88;;;4.80;;
36709;SDS011;22694;51.040;3.684;2022-10-19T11:10:32;8.48;;;4.30;;
36709;SDS011;22694;51.040;3.684;2022-10-19T11:13:03;9.55;;;4.30;;
36709;SDS011;22694;51.040;3.684;2022-10-19T11:15:36;9.27;;;4.90;;
36709;SDS011;22694;51.040;3.684;2022-10-19T11:18:19;8.10;;;4.47;;
36709;SDS011;22694;51.040;3.684;2022-10-19T11:21:06;9.57;;;4.85;;
36709;SDS011;22694;51.040;3.684;2022-10-19T11:23:39;9.52;;;4.40;;
36709;SDS011;22694;51.040;3.684;2022-10-19T11:29:12;9.18;;;3.88;;
36709;SDS011;22694;51.040;3.684;2022-10-19T11:31:46;8.63;;;4.50;;
36709;SDS011;22694;51.040;3.684;2022-10-19T11:37:13;8.90;;;4.63;;
36709;SDS011;22694;51.040;3.684;2022-10-19T11:45:45;6.68;;;4.05;;
36709;SDS011;22694;51.040;3.684;2022-10-19T11:48:30;8.35;;;4.22;;
36709;SDS011;22694;51.040;3.684;2022-10-19T12:12:08;6.45;;;4.30;;
36709;SDS011;22694;51.040;3.684;2022-10-19T12:15:02;8.10;;;4.25;;
36709;SDS011;22694;51.040;3.684;2022-10-19T12:17:35;10.80;;;4.88;;
36709;SDS011;22694;51.040;3.684;2022-10-19T12:20:05;6.30;;;4.45;;
36709;SDS011;22694;51.040;3.684;2022-10-19T12:22:38;7.18;;;3.60;;
36709;SDS011;22694;51.040;3.684;2022-10-19T12:25:04;7.15;;;4.22;;
36709;SDS011;22694;51.040;3.684;2022-10-19T12:27:31;9.13;;;4.20;;
36709;SDS011;22694;51.040;3.684;2022-10-19T12:30:03;7.72;;;4.70;;
36709;SDS011;22694;51.040;3.684;2022-10-19T12:32:31;7.78;;;4.00;;
36709;SDS011;22694;51.040;3.684;2022-10-19T12:38:28;7.00;;;3.95;;
36709;SDS011;22694;51.040;3.684;2022-10-19T12:51:54;5.13;;;3.17;;
36709;SDS011;22694;51.040;3.684;2022-10-19T12:54:25;4.85;;;3.42;;
36709;SDS011;22694;51.040;3.684;2022-10-19T12:56:53;6.77;;;3.67;;
36709;SDS011;22694;51.040;3.684;2022-10-19T12:59:30;4.78;;;3.40;;
36709;SDS011;22694;51.040;3.684;2022-10-19T13:01:58;6.65;;;3.45;;
36709;SDS011;22694;51.040;3.684;2022-10-19T13:04:26;5.88;;;3.20;;
36709;SDS011;22694;51.040;3.684;2022-10-19T13:14:45;6.00;;;2.70;;
36709;SDS011;22694;51.040;3.684;2022-10-19T13:28:37;6.40;;;3.67;;
36709;SDS011;22694;51.040;3.684;2022-10-19T13:38:26;84.25;;;38.90;;
36709;SDS011;22694;51.040;3.684;2022-10-19T13:40:57;99.18;;;43.35;;
36709;SDS011;22694;51.040;3.684;2022-10-19T14:07:53;104.70;;;49.08;;
36709;SDS011;22694;51.040;3.684;2022-10-19T14:10:34;72.95;;;32.30;;
36709;SDS011;22694;51.040;3.684;2022-10-19T14:13:01;78.63;;;33.42;;
36709;SDS011;22694;51.040;3.684;2022-10-19T14:15:30;63.78;;;28.33;;
36709;SDS011;22694;51.040;3.684;2022-10-19T14:17:57;55.10;;;25.23;;
36709;SDS011;22694;51.040;3.684;2022-10-19T14:22:51;56.67;;;24.45;;
36709;SDS011;22694;51.040;3.684;2022-10-19T14:25:18;47.45;;;24.55;;
36709;SDS011;22694;51.040;3.684;2022-10-19T14:27:45;51.30;;;25.20;;
36709;SDS011;22694;51.040;3.684;2022-10-19T14:30:22;50.88;;;23.83;;
36709;SDS011;22694;51.040;3.684;2022-10-19T14:32:50;47.97;;;23.33;;
36709;SDS011;22694;51.040;3.684;2022-10-19T14:35:21;51.63;;;24.55;;
36709;SDS011;22694;51.040;3.684;2022-10-19T14:37:55;49.40;;;22.63;;
36709;SDS011;22694;51.040;3.684;2022-10-19T14:40:23;42.42;;;22.08;;
36709;SDS011;22694;51.040;3.684;2022-10-19T14:42:51;43.90;;;19.42;;
36709;SDS011;22694;51.040;3.684;2022-10-19T14:45:21;43.60;;;21.23;;
36709;SDS011;22694;51.040;3.684;2022-10-19T14:47:50;41.20;;;19.38;;
36709;SDS011;22694;51.040;3.684;2022-10-19T14:50:19;39.03;;;18.95;;
36709;SDS011;22694;51.040;3.684;2022-10-19T14:52:48;40.70;;;19.88;;
36709;SDS011;22694;51.040;3.684;2022-10-19T14:55:17;36.70;;;17.50;;
36709;SDS011;22694;51.040;3.684;2022-10-19T14:57:44;36.17;;;17.77;;
36709;SDS011;22694;51.040;3.684;2022-10-19T15:00:17;32.88;;;16.05;;
36709;SDS011;22694;51.040;3.684;2022-10-19T15:02:51;34.45;;;16.65;;
36709;SDS011;22694;51.040;3.684;2022-10-19T15:05:28;33.88;;;15.27;;
36709;SDS011;22694;51.040;3.684;2022-10-19T15:08:04;32.50;;;15.93;;
36709;SDS011;22694;51.040;3.684;2022-10-19T15:10:41;26.20;;;14.82;;
36709;SDS011;22694;51.040;3.684;2022-10-19T15:13:15;22.88;;;13.45;;
36709;SDS011;22694;51.040;3.684;2022-10-19T15:15:52;26.83;;;13.45;;
36709;SDS011;22694;51.040;3.684;2022-10-19T15:18:20;26.13;;;12.38;;
36709;SDS011;22694;51.040;3.684;2022-10-19T15:20:58;23.35;;;12.40;;
36709;SDS011;22694;51.040;3.684;2022-10-19T15:26:27;22.70;;;10.48;;
36709;SDS011;22694;51.040;3.684;2022-10-19T15:28:54;23.20;;;11.57;;
36709;SDS011;22694;51.040;3.684;2022-10-19T15:31:31;20.27;;;10.13;;
36709;SDS011;22694;51.040;3.684;2022-10-19T15:33:57;16.08;;;9.32;;
36709;SDS011;22694;51.040;3.684;2022-10-19T15:36:25;22.27;;;8.85;;
36709;SDS011;22694;51.040;3.684;2022-10-19T15:39:04;15.57;;;9.00;;
36709;SDS011;22694;51.040;3.684;2022-10-19T15:41:35;15.65;;;8.32;;
36709;SDS011;22694;51.040;3.684;2022-10-19T15:44:03;14.05;;;7.75;;
36709;SDS011;22694;51.040;3.684;2022-10-19T15:46:33;12.57;;;7.43;;
36709;SDS011;22694;51.040;3.684;2022-10-19T15:49:46;14.98;;;7.63;;
36709;SDS011;22694;51.040;3.684;2022-10-19T15:52:28;14.27;;;7.28;;
36709;SDS011;22694;51.040;3.684;2022-10-19T15:54:56;15.65;;;7.95;;
36709;SDS011;22694;51.040;3.684;2022-10-19T15:59:52;14.07;;;6.95;;
36709;SDS011;22694;51.040;3.684;2022-10-19T16:02:19;12.32;;;7.35;;
36709;SDS011;22694;51.040;3.684;2022-10-19T16:04:45;11.88;;;6.63;;
36709;SDS011;22694;51.040;3.684;2022-10-19T16:07:14;13.32;;;6.80;;
36709;SDS011;22694;51.040;3.684;2022-10-19T16:09:49;13.90;;;6.53;;
36709;SDS011;22694;51.040;3.684;2022-10-19T16:12:15;10.95;;;6.72;;
36709;SDS011;22694;51.040;3.684;2022-10-19T16:14:41;9.02;;;6.45;;
36709;SDS011;22694;51.040;3.684;2022-10-19T16:17:08;10.57;;;6.38;;
36709;SDS011;22694;51.040;3.684;2022-10-19T16:19:36;11.35;;;6.43;;
36709;SDS011;22694;51.040;3.684;2022-10-19T16:22:02;9.05;;;5.35;;
36709;SDS011;22694;51.040;3.684;2022-10-19T16:24:27;10.30;;;5.22;;
36709;SDS011;22694;51.040;3.684;2022-10-19T16:26:53;10.43;;;6.28;;
36709;SDS011;22694;51.040;3.684;2022-10-19T16:29:18;9.65;;;5.63;;
36709;SDS011;22694;51.040;3.684;2022-10-19T16:31:44;6.40;;;5.00;;
36709;SDS011;22694;51.040;3.684;2022-10-19T16:34:10;9.48;;;5.18;;
36709;SDS011;22694;51.040;3.684;2022-10-19T16:36:35;7.82;;;5.30;;
36709;SDS011;22694;51.040;3.684;2022-10-19T16:39:01;9.05;;;5.72;;
36709;SDS011;22694;51.040;3.684;2022-10-19T16:41:28;9.43;;;5.72;;
36709;SDS011;22694;51.040;3.684;2022-10-19T16:43:54;9.32;;;4.45;;
36709;SDS011;22694;51.040;3.684;2022-10-19T16:46:21;6.75;;;4.40;;
36709;SDS011;22694;51.040;3.684;2022-10-19T16:48:48;8.02;;;4.85;;
36709;SDS011;22694;51.040;3.684;2022-10-19T16:54:00;7.72;;;4.93;;
36709;SDS011;22694;51.040;3.684;2022-10-19T16:56:27;8.27;;;4.90;;
36709;SDS011;22694;51.040;3.684;2022-10-19T16:58:58;7.20;;;4.68;;
36709;SDS011;22694;51.040;3.684;2022-10-19T17:01:28;7.40;;;4.70;;
36709;SDS011;22694;51.040;3.684;2022-10-19T17:03:54;8.60;;;4.82;;
36709;SDS011;22694;51.040;3.684;2022-10-19T17:06:20;9.23;;;4.47;;
36709;SDS011;22694;51.040;3.684;2022-10-19T17:08:47;8.35;;;4.97;;
36709;SDS011;22694;51.040;3.684;2022-10-19T17:11:23;6.88;;;4.55;;
36709;SDS011;22694;51.040;3.684;2022-10-19T17:13:55;6.35;;;4.50;;
36709;SDS011;22694;51.040;3.684;2022-10-19T17:16:23;6.82;;;4.95;;
36709;SDS011;22694;51.040;3.684;2022-10-19T17:18:49;8.52;;;4.93;;
36709;SDS011;22694;51.040;3.684;2022-10-19T17:21:18;6.20;;;4.53;;
36709;SDS011;22694;51.040;3.684;2022-10-19T17:23:45;6.57;;;4.25;;
36709;SDS011;22694;51.040;3.684;2022-10-19T17:26:11;7.40;;;4.65;;
36709;SDS011;22694;51.040;3.684;2022-10-19T17:28:38;8.88;;;4.88;;
36709;SDS011;22694;51.040;3.684;2022-10-19T17:31:08;4.72;;;4.20;;
36709;SDS011;22694;51.040;3.684;2022-10-19T17:33:36;7.07;;;5.00;;
36709;SDS011;22694;51.040;3.684;2022-10-19T17:36:04;5.25;;;3.40;;
36709;SDS011;22694;51.040;3.684;2022-10-19T17:38:29;5.85;;;4.15;;
36709;SDS011;22694;51.040;3.684;2022-10-19T17:40:59;5.90;;;4.55;;
36709;SDS011;22694;51.040;3.684;2022-10-19T17:43:26;5.80;;;4.05;;
36709;SDS011;22694;51.040;3.684;2022-10-19T17:46:01;8.35;;;4.30;;